sensor_id;sensor_type;location;lat;lon;timestamp;pressure;altitude;pressure_sealevel;temperature;humidity
46922;BME280;44039;48.336;10.454;2022-09-09T00:00:49;95671.00;;;14.69;100.00
46922;BME280;44039;48.336;10.454;2022-09-09T00:03:53;95671.81;;;14.60;100.00
46922;BME280;44039;48.336;10.454;2022-09-09T00:10:24;95665.69;;;14.50;100.00
46922;BME280;44039;48.336;10.454;2022-09-09T00:16:21;95671.69;;;14.20;100.00
46922;BME280;44039;48.336;10.454;2022-09-09T00:19:24;95666.81;;;13.95;100.00
46922;BME280;44039;48.336;10.454;2022-09-09T00:22:19;95672.56;;;13.56;100.00
46922;BME280;44039;48.336;10.454;2022-09-09T00:25:23;95675.78;;;13.60;100.00
46922;BME280;44039;48.336;10.454;2022-09-09T00:28:24;95684.22;;;13.43;100.00
46922;BME280;44039;48.336;10.454;2022-09-09T00:31:16;95674.06;;;13.38;100.00
46922;BME280;44039;48.336;10.454;2022-09-09T00:34:09;95673.03;;;13.61;100.00
46922;BME280;44039;48.336;10.454;2022-09-09T00:36:59;95665.72;;;14.18;100.00
46922;BME280;44039;48.336;10.454;2022-09-09T00:39:47;95663.13;;;13.97;100.00
46922;BME280;44039;48.336;10.454;2022-09-09T00:42:42;95672.97;;;13.52;100.00
46922;BME280;44039;48.336;10.454;2022-09-09T00:51:52;95664.66;;;14.00;100.00
46922;BME280;44039;48.336;10.454;2022-09-09T00:57:36;95681.72;;;13.30;100.00
46922;BME280;44039;48.336;10.454;2022-09-09T01:00:26;95671.66;;;13.46;100.00
46922;BME280;44039;48.336;10.454;2022-09-09T01:03:32;95670.06;;;13.87;100.00
46922;BME280;44039;48.336;10.454;2022-09-09T01:09:33;95664.63;;;13.79;100.00
46922;BME280;44039;48.336;10.454;2022-09-09T01:12:38;95658.63;;;14.09;100.00
46922;BME280;44039;48.336;10.454;2022-09-09T01:15:29;95650.56;;;14.01;100.00
46922;BME280;44039;48.336;10.454;2022-09-09T01:18:21;95645.50;;;14.30;100.00
46922;BME280;44039;48.336;10.454;2022-09-09T01:27:02;95641.34;;;13.85;100.00
46922;BME280;44039;48.336;10.454;2022-09-09T01:29:51;95642.91;;;13.56;100.00
46922;BME280;44039;48.336;10.454;2022-09-09T01:38:41;95645.78;;;13.53;100.00
46922;BME280;44039;48.336;10.454;2022-09-09T01:41:28;95635.56;;;13.50;100.00
46922;BME280;44039;48.336;10.454;2022-09-09T01:44:16;95647.03;;;13.38;100.00
46922;BME280;44039;48.336;10.454;2022-09-09T01:47:05;95631.97;;;13.51;100.00
46922;BME280;44039;48.336;10.454;2022-09-09T01:49:52;95635.53;;;13.82;100.00
46922;BME280;44039;48.336;10.454;2022-09-09T01:52:40;95633.47;;;14.06;100.00
46922;BME280;44039;48.336;10.454;2022-09-09T01:59:21;95638.63;;;14.17;100.00
46922;BME280;44039;48.336;10.454;2022-09-09T02:02:12;95636.03;;;13.97;100.00
46922;BME280;44039;48.336;10.454;2022-09-09T02:08:08;95634.69;;;13.49;100.00
46922;BME280;44039;48.336;10.454;2022-09-09T02:11:06;95631.88;;;13.41;100.00
46922;BME280;44039;48.336;10.454;2022-09-09T02:13:57;95620.97;;;13.78;100.00
46922;BME280;44039;48.336;10.454;2022-09-09T02:16:56;95618.28;;;14.10;100.00
46922;BME280;44039;48.336;10.454;2022-09-09T02:19:50;95616.03;;;13.63;100.00
46922;BME280;44039;48.336;10.454;2022-09-09T02:22:39;95622.09;;;13.43;100.00
46922;BME280;44039;48.336;10.454;2022-09-09T02:25:29;95620.72;;;13.60;100.00
46922;BME280;44039;48.336;10.454;2022-09-09T02:28:17;95620.66;;;13.71;100.00
46922;BME280;44039;48.336;10.454;2022-09-09T02:31:06;95615.16;;;13.74;100.00
46922;BME280;44039;48.336;10.454;2022-09-09T02:33:58;95618.66;;;13.63;100.00
46922;BME280;44039;48.336;10.454;2022-09-09T02:36:46;95619.84;;;13.39;100.00
46922;BME280;44039;48.336;10.454;2022-09-09T02:39:35;95611.72;;;13.42;100.00
46922;BME280;44039;48.336;10.454;2022-09-09T02:42:22;95607.88;;;13.78;100.00
46922;BME280;44039;48.336;10.454;2022-09-09T02:45:12;95607.34;;;13.42;100.00
46922;BME280;44039;48.336;10.454;2022-09-09T02:51:10;95616.38;;;12.72;100.00
46922;BME280;44039;48.336;10.454;2022-09-09T02:57:17;95626.31;;;12.58;100.00
46922;BME280;44039;48.336;10.454;2022-09-09T03:00:06;95626.06;;;12.61;100.00
46922;BME280;44039;48.336;10.454;2022-09-09T03:02:53;95628.69;;;12.61;100.00
46922;BME280;44039;48.336;10.454;2022-09-09T03:05:41;95620.66;;;12.85;100.00
46922;BME280;44039;48.336;10.454;2022-09-09T03:08:29;95621.50;;;12.85;100.00
46922;BME280;44039;48.336;10.454;2022-09-09T03:11:17;95621.66;;;12.61;100.00
46922;BME280;44039;48.336;10.454;2022-09-09T03:14:04;95629.97;;;12.89;100.00
46922;BME280;44039;48.336;10.454;2022-09-09T03:16:52;95627.59;;;12.63;100.00
46922;BME280;44039;48.336;10.454;2022-09-09T03:19:39;95624.38;;;12.82;100.00
46922;BME280;44039;48.336;10.454;2022-09-09T03:22:26;95629.34;;;12.96;100.00
46922;BME280;44039;48.336;10.454;2022-09-09T03:25:13;95622.28;;;13.19;100.00
46922;BME280;44039;48.336;10.454;2022-09-09T03:28:01;95629.66;;;13.14;100.00
46922;BME280;44039;48.336;10.454;2022-09-09T03:30:48;95635.91;;;12.79;100.00
46922;BME280;44039;48.336;10.454;2022-09-09T03:33:39;95632.00;;;12.74;100.00
46922;BME280;44039;48.336;10.454;2022-09-09T03:36:27;95629.88;;;12.45;100.00
46922;BME280;44039;48.336;10.454;2022-09-09T03:39:14;95629.03;;;12.45;100.00
46922;BME280;44039;48.336;10.454;2022-09-09T03:42:02;95628.06;;;12.57;100.00
46922;BME280;44039;48.336;10.454;2022-09-09T03:44:52;95626.28;;;12.69;100.00
46922;BME280;44039;48.336;10.454;2022-09-09T03:47:39;95636.75;;;12.46;100.00
46922;BME280;44039;48.336;10.454;2022-09-09T03:50:26;95637.34;;;12.05;100.00
46922;BME280;44039;48.336;10.454;2022-09-09T03:53:14;95636.41;;;12.29;100.00
46922;BME280;44039;48.336;10.454;2022-09-09T03:56:02;95641.41;;;12.32;100.00
46922;BME280;44039;48.336;10.454;2022-09-09T03:58:49;95634.38;;;12.21;100.00
46922;BME280;44039;48.336;10.454;2022-09-09T04:01:36;95630.63;;;11.90;100.00
46922;BME280;44039;48.336;10.454;2022-09-09T04:04:23;95639.69;;;12.08;100.00
46922;BME280;44039;48.336;10.454;2022-09-09T04:07:10;95634.38;;;12.21;100.00
46922;BME280;44039;48.336;10.454;2022-09-09T04:09:58;95628.53;;;12.40;100.00
46922;BME280;44039;48.336;10.454;2022-09-09T04:12:45;95638.53;;;12.23;100.00
46922;BME280;44039;48.336;10.454;2022-09-09T04:15:35;95632.25;;;12.37;100.00
46922;BME280;44039;48.336;10.454;2022-09-09T04:18:23;95623.22;;;12.52;100.00
46922;BME280;44039;48.336;10.454;2022-09-09T04:21:11;95626.41;;;12.45;100.00
46922;BME280;44039;48.336;10.454;2022-09-09T04:23:59;95628.06;;;12.46;100.00
46922;BME280;44039;48.336;10.454;2022-09-09T04:26:46;95621.63;;;12.84;100.00
46922;BME280;44039;48.336;10.454;2022-09-09T04:29:34;95622.56;;;12.94;100.00
46922;BME280;44039;48.336;10.454;2022-09-09T04:32:21;95635.19;;;12.77;100.00
46922;BME280;44039;48.336;10.454;2022-09-09T04:35:08;95638.97;;;13.07;100.00
46922;BME280;44039;48.336;10.454;2022-09-09T04:37:55;95644.56;;;13.02;100.00
46922;BME280;44039;48.336;10.454;2022-09-09T04:40:51;95647.47;;;12.88;100.00
46922;BME280;44039;48.336;10.454;2022-09-09T04:43:38;95650.13;;;13.31;100.00
46922;BME280;44039;48.336;10.454;2022-09-09T04:46:26;95650.03;;;13.11;100.00
46922;BME280;44039;48.336;10.454;2022-09-09T04:49:13;95651.00;;;13.09;100.00
46922;BME280;44039;48.336;10.454;2022-09-09T04:52:02;95654.34;;;13.23;100.00
46922;BME280;44039;48.336;10.454;2022-09-09T04:54:49;95660.75;;;13.30;100.00
46922;BME280;44039;48.336;10.454;2022-09-09T04:57:36;95656.75;;;13.79;100.00
46922;BME280;44039;48.336;10.454;2022-09-09T05:00:24;95657.28;;;13.73;100.00
46922;BME280;44039;48.336;10.454;2022-09-09T05:03:11;95662.91;;;13.89;100.00
46922;BME280;44039;48.336;10.454;2022-09-09T05:06:04;95663.31;;;14.26;100.00
46922;BME280;44039;48.336;10.454;2022-09-09T05:08:51;95664.88;;;13.76;100.00
46922;BME280;44039;48.336;10.454;2022-09-09T05:11:38;95672.13;;;13.83;100.00
46922;BME280;44039;48.336;10.454;2022-09-09T05:14:25;95673.50;;;14.19;100.00
46922;BME280;44039;48.336;10.454;2022-09-09T05:17:13;95661.31;;;14.60;100.00
46922;BME280;44039;48.336;10.454;2022-09-09T05:20:00;95671.09;;;14.16;100.00
46922;BME280;44039;48.336;10.454;2022-09-09T05:22:56;95671.25;;;14.15;100.00
46922;BME280;44039;48.336;10.454;2022-09-09T05:25:43;95678.13;;;13.95;100.00
46922;BME280;44039;48.336;10.454;2022-09-09T05:28:30;95687.06;;;14.04;100.00
46922;BME280;44039;48.336;10.454;2022-09-09T05:31:18;95676.09;;;14.61;100.00
46922;BME280;44039;48.336;10.454;2022-09-09T05:34:05;95684.34;;;14.57;100.00
46922;BME280;44039;48.336;10.454;2022-09-09T05:36:52;95678.72;;;14.40;100.00
46922;BME280;44039;48.336;10.454;2022-09-09T05:39:40;95683.41;;;14.58;100.00
46922;BME280;44039;48.336;10.454;2022-09-09T05:42:30;95676.66;;;14.95;100.00
46922;BME280;44039;48.336;10.454;2022-09-09T05:45:18;95671.91;;;15.20;100.00
46922;BME280;44039;48.336;10.454;2022-09-09T05:48:06;95681.88;;;14.86;100.00
46922;BME280;44039;48.336;10.454;2022-09-09T05:50:54;95688.31;;;14.72;100.00
46922;BME280;44039;48.336;10.454;2022-09-09T05:53:42;95691.53;;;14.55;100.00
46922;BME280;44039;48.336;10.454;2022-09-09T05:56:29;95692.97;;;14.59;100.00
46922;BME280;44039;48.336;10.454;2022-09-09T05:59:16;95691.47;;;14.96;100.00
46922;BME280;44039;48.336;10.454;2022-09-09T06:02:05;95683.25;;;15.20;100.00
46922;BME280;44039;48.336;10.454;2022-09-09T06:04:52;95681.75;;;15.27;100.00
46922;BME280;44039;48.336;10.454;2022-09-09T06:07:44;95672.84;;;15.88;100.00
46922;BME280;44039;48.336;10.454;2022-09-09T06:10:31;95668.25;;;15.90;100.00
46922;BME280;44039;48.336;10.454;2022-09-09T06:13:18;95666.31;;;15.73;100.00
46922;BME280;44039;48.336;10.454;2022-09-09T06:16:10;95666.69;;;15.49;100.00
46922;BME280;44039;48.336;10.454;2022-09-09T06:18:58;95687.53;;;15.21;100.00
46922;BME280;44039;48.336;10.454;2022-09-09T06:21:46;95675.97;;;15.43;100.00
46922;BME280;44039;48.336;10.454;2022-09-09T06:24:34;95666.44;;;15.62;100.00
46922;BME280;44039;48.336;10.454;2022-09-09T06:27:21;95665.75;;;15.10;100.00
46922;BME280;44039;48.336;10.454;2022-09-09T06:30:09;95667.75;;;14.87;100.00
46922;BME280;44039;48.336;10.454;2022-09-09T06:32:56;95683.78;;;14.74;100.00
46922;BME280;44039;48.336;10.454;2022-09-09T06:35:52;95684.84;;;14.71;100.00
46922;BME280;44039;48.336;10.454;2022-09-09T06:38:40;95683.78;;;15.24;100.00
46922;BME280;44039;48.336;10.454;2022-09-09T06:41:29;95676.25;;;15.00;100.00
46922;BME280;44039;48.336;10.454;2022-09-09T06:44:17;95677.63;;;15.44;100.00
46922;BME280;44039;48.336;10.454;2022-09-09T06:47:04;95678.19;;;15.57;100.00
46922;BME280;44039;48.336;10.454;2022-09-09T06:49:51;95694.38;;;15.53;100.00
46922;BME280;44039;48.336;10.454;2022-09-09T06:52:39;95682.25;;;15.81;100.00
46922;BME280;44039;48.336;10.454;2022-09-09T06:55:26;95700.66;;;15.12;100.00
46922;BME280;44039;48.336;10.454;2022-09-09T06:58:13;95700.34;;;15.05;100.00
46922;BME280;44039;48.336;10.454;2022-09-09T07:01:07;95700.06;;;15.08;100.00
46922;BME280;44039;48.336;10.454;2022-09-09T07:03:55;95703.66;;;15.07;100.00
46922;BME280;44039;48.336;10.454;2022-09-09T07:06:45;95697.81;;;15.44;100.00
46922;BME280;44039;48.336;10.454;2022-09-09T07:09:32;95713.03;;;15.30;100.00
46922;BME280;44039;48.336;10.454;2022-09-09T07:12:19;95705.00;;;15.32;100.00
46922;BME280;44039;48.336;10.454;2022-09-09T07:15:07;95702.28;;;15.53;100.00
46922;BME280;44039;48.336;10.454;2022-09-09T07:17:54;95699.72;;;15.82;100.00
46922;BME280;44039;48.336;10.454;2022-09-09T07:20:41;95703.72;;;15.86;100.00
46922;BME280;44039;48.336;10.454;2022-09-09T07:23:29;95698.59;;;16.13;100.00
46922;BME280;44039;48.336;10.454;2022-09-09T07:26:24;95701.38;;;16.12;100.00
46922;BME280;44039;48.336;10.454;2022-09-09T07:29:11;95691.34;;;16.25;100.00
46922;BME280;44039;48.336;10.454;2022-09-09T07:32:06;95688.47;;;16.09;100.00
46922;BME280;44039;48.336;10.454;2022-09-09T07:34:53;95694.28;;;16.42;100.00
46922;BME280;44039;48.336;10.454;2022-09-09T07:37:40;95705.31;;;16.55;100.00
46922;BME280;44039;48.336;10.454;2022-09-09T07:40:28;95709.94;;;15.95;100.00
46922;BME280;44039;48.336;10.454;2022-09-09T07:43:15;95702.00;;;16.53;100.00
46922;BME280;44039;48.336;10.454;2022-09-09T07:46:06;95692.25;;;16.63;100.00
46922;BME280;44039;48.336;10.454;2022-09-09T07:48:55;95701.84;;;16.64;100.00
46922;BME280;44039;48.336;10.454;2022-09-09T07:51:45;95697.41;;;16.64;100.00
46922;BME280;44039;48.336;10.454;2022-09-09T07:54:32;95694.19;;;19.04;100.00
46922;BME280;44039;48.336;10.454;2022-09-09T07:57:19;95692.00;;;18.99;100.00
46922;BME280;44039;48.336;10.454;2022-09-09T08:00:07;95668.06;;;22.68;71.72
46922;BME280;44039;48.336;10.454;2022-09-09T08:02:54;95697.66;;;19.04;93.11
46922;BME280;44039;48.336;10.454;2022-09-09T08:05:41;95712.84;;;17.34;100.00
46922;BME280;44039;48.336;10.454;2022-09-09T08:08:30;95721.34;;;16.90;100.00
46922;BME280;44039;48.336;10.454;2022-09-09T08:11:17;95710.63;;;18.46;100.00
46922;BME280;44039;48.336;10.454;2022-09-09T08:14:06;95705.94;;;18.14;100.00
46922;BME280;44039;48.336;10.454;2022-09-09T08:16:54;95693.84;;;19.41;91.82
46922;BME280;44039;48.336;10.454;2022-09-09T08:19:41;95708.88;;;18.98;96.53
46922;BME280;44039;48.336;10.454;2022-09-09T08:22:28;95712.13;;;18.04;100.00
46922;BME280;44039;48.336;10.454;2022-09-09T08:25:16;95706.50;;;18.43;100.00
46922;BME280;44039;48.336;10.454;2022-09-09T08:28:02;95705.88;;;18.67;100.00
46922;BME280;44039;48.336;10.454;2022-09-09T08:30:50;95702.63;;;20.16;93.72
46922;BME280;44039;48.336;10.454;2022-09-09T08:33:38;95681.28;;;21.61;83.52
46922;BME280;44039;48.336;10.454;2022-09-09T08:36:27;95694.66;;;20.00;91.13
46922;BME280;44039;48.336;10.454;2022-09-09T08:39:17;95701.53;;;19.18;98.44
46922;BME280;44039;48.336;10.454;2022-09-09T08:42:41;95700.00;;;18.81;99.73
46922;BME280;44039;48.336;10.454;2022-09-09T08:45:40;95703.19;;;18.23;100.00
46922;BME280;44039;48.336;10.454;2022-09-09T08:48:50;95710.09;;;19.12;100.00
46922;BME280;44039;48.336;10.454;2022-09-09T08:51:43;95703.97;;;18.59;100.00
46922;BME280;44039;48.336;10.454;2022-09-09T08:54:34;95697.50;;;19.40;98.28
46922;BME280;44039;48.336;10.454;2022-09-09T08:57:38;95700.25;;;19.30;98.12
46922;BME280;44039;48.336;10.454;2022-09-09T09:00:40;95695.47;;;19.00;100.00
46922;BME280;44039;48.336;10.454;2022-09-09T09:03:57;95687.69;;;18.98;98.79
46922;BME280;44039;48.336;10.454;2022-09-09T09:13:22;95690.59;;;18.35;99.73
46922;BME280;44039;48.336;10.454;2022-09-09T09:16:35;95707.28;;;18.36;100.00
46922;BME280;44039;48.336;10.454;2022-09-09T09:19:26;95710.44;;;18.83;98.13
46922;BME280;44039;48.336;10.454;2022-09-09T09:22:32;95701.50;;;18.84;96.13
46922;BME280;44039;48.336;10.454;2022-09-09T09:25:31;95702.38;;;19.69;93.15
46922;BME280;44039;48.336;10.454;2022-09-09T09:28:24;95699.13;;;19.99;90.49
46922;BME280;44039;48.336;10.454;2022-09-09T09:31:12;95701.63;;;20.01;89.73
46922;BME280;44039;48.336;10.454;2022-09-09T09:34:00;95676.09;;;21.68;79.25
46922;BME280;44039;48.336;10.454;2022-09-09T09:36:56;95673.53;;;21.83;79.11
46922;BME280;44039;48.336;10.454;2022-09-09T09:39:44;95679.59;;;20.74;85.83
46922;BME280;44039;48.336;10.454;2022-09-09T09:42:59;95680.50;;;21.05;83.30
46922;BME280;44039;48.336;10.454;2022-09-09T09:45:47;95671.00;;;21.89;78.49
46922;BME280;44039;48.336;10.454;2022-09-09T09:48:58;95666.94;;;22.47;74.60
46922;BME280;44039;48.336;10.454;2022-09-09T09:51:46;95686.06;;;20.31;86.80
46922;BME280;44039;48.336;10.454;2022-09-09T09:54:37;95675.97;;;21.30;77.83
46922;BME280;44039;48.336;10.454;2022-09-09T09:57:29;95673.38;;;21.06;75.95
46922;BME280;44039;48.336;10.454;2022-09-09T10:00:21;95684.09;;;20.57;78.50
46922;BME280;44039;48.336;10.454;2022-09-09T10:03:35;95675.06;;;22.00;73.67
46922;BME280;44039;48.336;10.454;2022-09-09T10:06:35;95679.75;;;20.80;78.57
46922;BME280;44039;48.336;10.454;2022-09-09T10:09:29;95679.25;;;21.41;76.71
46922;BME280;44039;48.336;10.454;2022-09-09T10:12:51;95684.56;;;20.69;79.50
46922;BME280;44039;48.336;10.454;2022-09-09T10:15:51;95684.94;;;20.49;79.83
46922;BME280;44039;48.336;10.454;2022-09-09T10:19:00;95677.28;;;20.22;79.32
46922;BME280;44039;48.336;10.454;2022-09-09T10:21:52;95678.13;;;20.22;78.78
46922;BME280;44039;48.336;10.454;2022-09-09T10:28:25;95680.44;;;20.58;78.35
46922;BME280;44039;48.336;10.454;2022-09-09T10:31:25;95673.00;;;20.45;77.66
46922;BME280;44039;48.336;10.454;2022-09-09T10:55:52;95656.72;;;21.59;63.96
46922;BME280;44039;48.336;10.454;2022-09-09T11:01:47;95642.03;;;23.22;55.77
46922;BME280;44039;48.336;10.454;2022-09-09T11:04:44;95648.13;;;23.01;60.07
46922;BME280;44039;48.336;10.454;2022-09-09T11:07:47;95645.91;;;22.15;61.24
46922;BME280;44039;48.336;10.454;2022-09-09T11:13:56;95632.84;;;23.40;51.68
46922;BME280;44039;48.336;10.454;2022-09-09T11:16:50;95631.94;;;23.69;51.06
46922;BME280;44039;48.336;10.454;2022-09-09T11:19:45;95628.84;;;24.51;50.17
46922;BME280;44039;48.336;10.454;2022-09-09T11:23:09;95620.06;;;24.85;48.32
46922;BME280;44039;48.336;10.454;2022-09-09T11:25:52;95620.53;;;23.96;49.69
46922;BME280;44039;48.336;10.454;2022-09-09T11:38:26;95586.13;;;27.00;43.45
46922;BME280;44039;48.336;10.454;2022-09-09T11:41:14;95586.38;;;25.80;40.09
46922;BME280;44039;48.336;10.454;2022-09-09T11:44:19;95576.22;;;25.68;38.54
46922;BME280;44039;48.336;10.454;2022-09-09T11:47:30;95595.44;;;24.96;43.18
46922;BME280;44039;48.336;10.454;2022-09-09T11:53:18;95591.63;;;24.21;37.15
46922;BME280;44039;48.336;10.454;2022-09-09T11:56:12;95613.72;;;22.77;45.08
46922;BME280;44039;48.336;10.454;2022-09-09T11:59:02;95607.63;;;22.01;46.64
46922;BME280;44039;48.336;10.454;2022-09-09T12:04:53;95585.00;;;25.42;42.05
46922;BME280;44039;48.336;10.454;2022-09-09T12:07:52;95582.72;;;26.53;39.80
46922;BME280;44039;48.336;10.454;2022-09-09T12:10:54;95584.97;;;27.41;38.38
46922;BME280;44039;48.336;10.454;2022-09-09T12:13:52;95590.00;;;27.18;37.38
46922;BME280;44039;48.336;10.454;2022-09-09T12:16:39;95573.97;;;26.91;36.29
46922;BME280;44039;48.336;10.454;2022-09-09T12:19:26;95588.28;;;24.34;40.78
46922;BME280;44039;48.336;10.454;2022-09-09T12:22:32;95581.44;;;25.90;37.84
46922;BME280;44039;48.336;10.454;2022-09-09T12:31:54;95592.75;;;24.89;42.37
46922;BME280;44039;48.336;10.454;2022-09-09T12:34:57;95583.34;;;24.93;40.80
46922;BME280;44039;48.336;10.454;2022-09-09T12:40:34;95605.38;;;22.65;48.80
46922;BME280;44039;48.336;10.454;2022-09-09T12:43:25;95602.72;;;22.51;49.30
46922;BME280;44039;48.336;10.454;2022-09-09T12:46:22;95605.09;;;21.23;56.02
46922;BME280;44039;48.336;10.454;2022-09-09T12:49:31;95602.78;;;22.28;54.24
46922;BME280;44039;48.336;10.454;2022-09-09T12:52:27;95575.53;;;25.33;44.39
46922;BME280;44039;48.336;10.454;2022-09-09T12:55:21;95562.00;;;27.52;39.02
46922;BME280;44039;48.336;10.454;2022-09-09T12:58:13;95593.94;;;22.80;52.69
46922;BME280;44039;48.336;10.454;2022-09-09T13:01:04;95594.59;;;21.37;54.75
46922;BME280;44039;48.336;10.454;2022-09-09T13:03:52;95598.94;;;20.91;59.15
46922;BME280;44039;48.336;10.454;2022-09-09T13:06:40;95590.47;;;20.48;60.64
46922;BME280;44039;48.336;10.454;2022-09-09T13:09:27;95596.25;;;20.52;60.99
46922;BME280;44039;48.336;10.454;2022-09-09T13:12:21;95597.59;;;20.48;63.75
46922;BME280;44039;48.336;10.454;2022-09-09T13:15:19;95607.38;;;20.23;67.98
46922;BME280;44039;48.336;10.454;2022-09-09T13:18:11;95627.75;;;20.06;78.26
46922;BME280;44039;48.336;10.454;2022-09-09T13:21:00;95655.28;;;18.18;94.13
46922;BME280;44039;48.336;10.454;2022-09-09T13:23:50;95668.75;;;16.42;100.00
46922;BME280;44039;48.336;10.454;2022-09-09T13:26:38;95654.66;;;15.95;100.00
46922;BME280;44039;48.336;10.454;2022-09-09T13:29:26;95655.19;;;16.27;100.00
46922;BME280;44039;48.336;10.454;2022-09-09T13:32:17;95656.75;;;16.67;98.83
46922;BME280;44039;48.336;10.454;2022-09-09T13:35:23;95653.81;;;17.35;100.00
46922;BME280;44039;48.336;10.454;2022-09-09T13:38:10;95631.78;;;18.15;100.00
46922;BME280;44039;48.336;10.454;2022-09-09T13:41:02;95597.16;;;20.83;80.76
46922;BME280;44039;48.336;10.454;2022-09-09T13:43:51;95590.53;;;21.19;78.42
46922;BME280;44039;48.336;10.454;2022-09-09T13:46:40;95574.63;;;21.50;75.20
46922;BME280;44039;48.336;10.454;2022-09-09T13:49:29;95553.66;;;25.10;62.64
46922;BME280;44039;48.336;10.454;2022-09-09T13:52:18;95543.41;;;25.20;58.26
46922;BME280;44039;48.336;10.454;2022-09-09T13:55:05;95550.69;;;24.07;62.87
46922;BME280;44039;48.336;10.454;2022-09-09T14:00:45;95525.63;;;25.54;49.91
46922;BME280;44039;48.336;10.454;2022-09-09T14:03:33;95526.56;;;25.19;50.25
46922;BME280;44039;48.336;10.454;2022-09-09T14:06:21;95543.66;;;24.49;60.36
46922;BME280;44039;48.336;10.454;2022-09-09T14:09:13;95547.75;;;24.24;59.32
46922;BME280;44039;48.336;10.454;2022-09-09T14:12:00;95527.53;;;25.73;49.76
46922;BME280;44039;48.336;10.454;2022-09-09T14:14:47;95519.84;;;25.43;46.94
46922;BME280;44039;48.336;10.454;2022-09-09T14:17:34;95525.56;;;25.34;49.22
46922;BME280;44039;48.336;10.454;2022-09-09T14:20:22;95542.28;;;24.32;53.47
46922;BME280;44039;48.336;10.454;2022-09-09T14:23:11;95533.78;;;24.91;50.76
46922;BME280;44039;48.336;10.454;2022-09-09T14:25:59;95537.63;;;24.75;53.06
46922;BME280;44039;48.336;10.454;2022-09-09T14:28:47;95528.41;;;25.19;51.81
46922;BME280;44039;48.336;10.454;2022-09-09T14:31:42;95529.81;;;25.15;50.58
46922;BME280;44039;48.336;10.454;2022-09-09T14:34:29;95531.56;;;24.25;51.28
46922;BME280;44039;48.336;10.454;2022-09-09T14:37:17;95528.50;;;25.65;48.24
46922;BME280;44039;48.336;10.454;2022-09-09T14:40:05;95527.75;;;25.85;49.10
46922;BME280;44039;48.336;10.454;2022-09-09T14:42:52;95537.84;;;25.21;50.49
46922;BME280;44039;48.336;10.454;2022-09-09T14:45:39;95537.31;;;24.98;50.50
46922;BME280;44039;48.336;10.454;2022-09-09T14:48:28;95529.00;;;25.14;47.80
46922;BME280;44039;48.336;10.454;2022-09-09T14:51:20;95519.47;;;26.59;44.14
46922;BME280;44039;48.336;10.454;2022-09-09T14:54:08;95520.69;;;25.64;45.07
46922;BME280;44039;48.336;10.454;2022-09-09T14:56:55;95527.19;;;24.39;47.59
46922;BME280;44039;48.336;10.454;2022-09-09T14:59:43;95535.53;;;23.44;50.04
46922;BME280;44039;48.336;10.454;2022-09-09T15:02:30;95524.31;;;25.23;46.85
46922;BME280;44039;48.336;10.454;2022-09-09T15:05:18;95521.66;;;24.19;49.28
46922;BME280;44039;48.336;10.454;2022-09-09T15:08:05;95542.56;;;21.28;56.53
46922;BME280;44039;48.336;10.454;2022-09-09T15:10:59;95539.25;;;22.33;55.01
46922;BME280;44039;48.336;10.454;2022-09-09T15:13:46;95521.91;;;23.32;49.88
46922;BME280;44039;48.336;10.454;2022-09-09T15:16:36;95528.25;;;23.31;48.38
46922;BME280;44039;48.336;10.454;2022-09-09T15:19:25;95528.63;;;24.20;49.82
46922;BME280;44039;48.336;10.454;2022-09-09T15:22:12;95544.00;;;22.00;55.21
46922;BME280;44039;48.336;10.454;2022-09-09T15:24:59;95539.56;;;23.76;49.50
46922;BME280;44039;48.336;10.454;2022-09-09T15:27:46;95543.97;;;21.62;52.59
46922;BME280;44039;48.336;10.454;2022-09-09T15:30:33;95556.34;;;20.45;59.11
46922;BME280;44039;48.336;10.454;2022-09-09T15:33:21;95552.84;;;20.37;59.38
46922;BME280;44039;48.336;10.454;2022-09-09T15:36:23;95552.34;;;20.49;61.23
46922;BME280;44039;48.336;10.454;2022-09-09T15:39:12;95550.94;;;20.78;59.00
46922;BME280;44039;48.336;10.454;2022-09-09T15:42:02;95551.72;;;20.87;60.05
46922;BME280;44039;48.336;10.454;2022-09-09T15:44:49;95549.44;;;20.75;58.90
46922;BME280;44039;48.336;10.454;2022-09-09T15:47:36;95553.41;;;20.79;61.72
46922;BME280;44039;48.336;10.454;2022-09-09T15:50:23;95550.53;;;20.34;61.69
46922;BME280;44039;48.336;10.454;2022-09-09T15:53:10;95553.19;;;20.34;66.59
46922;BME280;44039;48.336;10.454;2022-09-09T15:55:58;95556.97;;;20.56;64.14
46922;BME280;44039;48.336;10.454;2022-09-09T15:58:45;95555.19;;;20.23;62.17
46922;BME280;44039;48.336;10.454;2022-09-09T16:01:33;95553.22;;;20.25;63.89
46922;BME280;44039;48.336;10.454;2022-09-09T16:04:21;95549.16;;;20.62;63.18
46922;BME280;44039;48.336;10.454;2022-09-09T16:07:12;95537.50;;;20.79;61.84
46922;BME280;44039;48.336;10.454;2022-09-09T16:10:00;95534.59;;;21.51;61.36
46922;BME280;44039;48.336;10.454;2022-09-09T16:12:47;95539.06;;;20.97;62.51
46922;BME280;44039;48.336;10.454;2022-09-09T16:15:35;95551.75;;;20.78;66.74
46922;BME280;44039;48.336;10.454;2022-09-09T16:18:22;95545.25;;;20.34;66.88
46922;BME280;44039;48.336;10.454;2022-09-09T16:21:17;95551.03;;;20.29;66.96
46922;BME280;44039;48.336;10.454;2022-09-09T16:24:05;95547.59;;;20.12;67.76
46922;BME280;44039;48.336;10.454;2022-09-09T16:26:54;95548.13;;;19.83;68.96
46922;BME280;44039;48.336;10.454;2022-09-09T16:29:41;95550.13;;;19.73;71.66
46922;BME280;44039;48.336;10.454;2022-09-09T16:32:28;95548.56;;;19.54;73.85
46922;BME280;44039;48.336;10.454;2022-09-09T16:35:15;95556.69;;;19.44;75.37
46922;BME280;44039;48.336;10.454;2022-09-09T16:38:02;95560.53;;;19.58;76.17